Time;durP1;ratioP1;P1;durP2;ratioP2;P2;SDS_P1;SDS_P2;PMS_P1;PMS_P2;Temp;Humidity;BMP_temperature;BMP_pressure;BME280_temperature;BME280_humidity;BME280_pressure;Samples;Min_cycle;Max_cycle;Signal;HPM_P1;HPM_P2
2023/07/17 00:01:16;;;;;;;3.42;3.10;;;22.70;64.50;;;;;;4957093;28;20026;-82
2023/07/17 00:03:42;;;;;;;4.50;3.53;;;22.70;64.50;;;;;;4974621;28;20022;-82
2023/07/17 00:06:07;;;;;;;4.18;3.33;;;22.70;64.60;;;;;;4973193;28;20031;-82
2023/07/17 00:08:33;;;;;;;5.75;4.05;;;22.70;64.70;;;;;;4974283;28;20109;-82
2023/07/17 00:10:58;;;;;;;4.15;3.70;;;22.70;64.50;;;;;;4973279;28;20042;-82
2023/07/17 00:13:25;;;;;;;5.22;3.83;;;22.70;64.50;;;;;;4974159;28;20035;-82
2023/07/17 00:15:51;;;;;;;4.40;3.60;;;22.70;64.40;;;;;;4956690;28;20042;-82
2023/07/17 00:18:16;;;;;;;4.60;3.60;;;22.70;64.50;;;;;;4956731;28;20019;-82
2023/07/17 00:20:42;;;;;;;4.50;3.67;;;22.70;64.50;;;;;;4972884;28;20027;-82
2023/07/17 00:23:08;;;;;;;5.03;3.38;;;22.70;65.10;;;;;;4973938;28;20027;-82
2023/07/17 00:25:33;;;;;;;3.83;3.22;;;22.70;64.50;;;;;;4974101;28;20037;-81
2023/07/17 00:27:59;;;;;;;4.18;3.58;;;22.60;64.50;;;;;;4974176;28;20105;-82
2023/07/17 00:30:25;;;;;;;4.18;3.22;;;22.60;64.50;;;;;;4973830;28;20058;-82
2023/07/17 00:32:51;;;;;;;4.70;3.33;;;22.60;64.50;;;;;;4972498;28;20031;-82
2023/07/17 00:35:17;;;;;;;4.57;3.50;;;22.60;64.70;;;;;;4972594;28;20042;-82
2023/07/17 00:37:42;;;;;;;3.65;2.95;;;22.60;64.70;;;;;;4956426;28;20030;-82
2023/07/17 00:40:08;;;;;;;3.50;3.05;;;22.60;64.50;;;;;;4973286;28;20023;-82
2023/07/17 00:42:35;;;;;;;4.10;2.88;;;22.60;64.60;;;;;;4972321;28;20114;-82
2023/07/17 00:45:00;;;;;;;3.80;3.40;;;22.50;64.60;;;;;;4973589;28;20045;-82
2023/07/17 00:47:28;;;;;;;3.97;3.30;;;22.60;64.80;;;;;;4973670;28;20027;-82
2023/07/17 00:49:53;;;;;;;2.92;2.42;;;22.60;64.80;;;;;;4956507;28;20069;-81
2023/07/17 00:52:19;;;;;;;3.80;3.17;;;22.50;64.80;;;;;;4973421;28;20135;-82
2023/07/17 00:54:46;;;;;;;2.92;2.63;;;22.50;64.80;;;;;;4973490;28;20058;-82
2023/07/17 00:57:15;;;;;;;4.30;3.08;;;22.50;65.10;;;;;;4973433;28;20547;-82
2023/07/17 00:59:41;;;;;;;4.57;3.00;;;22.50;65.10;;;;;;4956180;28;20470;-81
2023/07/17 01:02:08;;;;;;;3.33;3.00;;;22.50;65.00;;;;;;4971997;28;20030;-82
2023/07/17 01:04:38;;;;;;;3.33;2.90;;;22.40;64.90;;;;;;4972375;28;20057;-82
2023/07/17 01:07:04;;;;;;;4.57;3.22;;;22.50;65.00;;;;;;4971922;28;20027;-82
2023/07/17 01:09:30;;;;;;;3.45;2.92;;;22.50;64.90;;;;;;4973173;28;20050;-82
2023/07/17 01:11:55;;;;;;;3.90;2.70;;;22.40;64.80;;;;;;4973327;28;20031;-82
2023/07/17 01:14:21;;;;;;;6.97;3.10;;;22.50;64.90;;;;;;4972960;28;20171;-82
2023/07/17 01:16:48;;;;;;;4.03;3.05;;;22.40;64.90;;;;;;4955668;28;20030;-82
2023/07/17 01:19:14;;;;;;;4.03;3.00;;;22.40;64.90;;;;;;4973168;28;20023;-82
2023/07/17 01:21:48;;;;;;;4.10;2.83;;;22.50;64.90;;;;;;4972967;28;20449;-82
2023/07/17 01:24:14;;;;;;;3.53;2.90;;;22.50;64.90;;;;;;4973189;28;20037;-82
2023/07/17 01:26:40;;;;;;;3.22;2.92;;;22.40;64.90;;;;;;4973105;28;20510;-82
2023/07/17 01:29:05;;;;;;;4.35;3.25;;;22.40;65.10;;;;;;4972711;28;20042;-82
2023/07/17 01:31:31;;;;;;;4.95;3.17;;;22.40;65.00;;;;;;4987213;28;20042;-82
2023/07/17 01:33:57;;;;;;;4.13;3.13;;;22.40;65.10;;;;;;4987011;28;20122;-82
2023/07/17 01:36:22;;;;;;;3.70;2.97;;;22.40;65.20;;;;;;4971919;28;20062;-82
2023/07/17 01:38:48;;;;;;;4.18;3.13;;;22.40;65.00;;;;;;4972121;28;20034;-82
2023/07/17 01:41:14;;;;;;;4.10;3.45;;;22.40;65.00;;;;;;4986981;28;20027;-82
2023/07/17 01:43:39;;;;;;;4.28;2.90;;;22.40;65.00;;;;;;4971909;28;20030;-82
2023/07/17 01:46:05;;;;;;;4.47;3.10;;;22.40;65.00;;;;;;4987045;28;20033;-82
2023/07/17 01:48:31;;;;;;;3.90;2.88;;;22.40;65.00;;;;;;4971832;28;20058;-82
2023/07/17 01:50:56;;;;;;;3.95;2.95;;;22.30;64.80;;;;;;4985575;28;20391;-82
2023/07/17 01:53:23;;;;;;;3.58;3.00;;;22.40;64.80;;;;;;4971837;28;20030;-82
2023/07/17 01:55:49;;;;;;;5.57;3.10;;;22.40;64.70;;;;;;4971725;28;20023;-82
2023/07/17 01:58:14;;;;;;;3.50;3.20;;;22.40;64.70;;;;;;4971971;28;20467;-82
2023/07/17 02:00:40;;;;;;;5.38;3.00;;;22.40;64.50;;;;;;4971843;28;20409;-82
2023/07/17 02:03:06;;;;;;;2.97;2.72;;;22.40;64.40;;;;;;4986921;28;20037;-82
2023/07/17 02:05:32;;;;;;;3.22;2.92;;;22.40;64.40;;;;;;4986681;28;20367;-82
2023/07/17 02:07:57;;;;;;;4.35;2.83;;;22.30;64.40;;;;;;4970395;28;20393;-82
2023/07/17 02:10:23;;;;;;;5.43;3.03;;;22.30;64.30;;;;;;4986495;28;20038;-82
2023/07/17 02:12:49;;;;;;;3.35;2.97;;;22.30;64.30;;;;;;4986537;28;20117;-82
2023/07/17 02:15:14;;;;;;;3.78;3.10;;;22.40;64.40;;;;;;4971609;28;20045;-82
2023/07/17 02:17:40;;;;;;;3.03;2.70;;;22.40;64.30;;;;;;4986383;28;20035;-82
2023/07/17 02:20:10;;;;;;;5.57;2.70;;;22.40;64.50;;;;;;4986758;28;20166;-82
2023/07/17 02:22:39;;;;;;;4.18;2.85;;;22.40;64.80;;;;;;4971343;28;20058;-82
2023/07/17 02:25:05;;;;;;;3.95;2.60;;;22.40;64.90;;;;;;4986191;28;20023;-82
2023/07/17 02:27:32;;;;;;;3.13;2.72;;;22.40;65.00;;;;;;4986412;28;20031;-82
2023/07/17 02:29:59;;;;;;;3.28;2.80;;;22.40;65.00;;;;;;4932116;28;1123548;-82
2023/07/17 02:32:28;;;;;;;3.15;2.85;;;22.40;64.80;;;;;;4972119;28;20114;-82
2023/07/17 02:34:54;;;;;;;3.10;2.70;;;22.50;64.60;;;;;;4986999;28;20125;-82
2023/07/17 02:37:19;;;;;;;3.45;2.75;;;22.50;64.60;;;;;;4970977;28;20201;-82
2023/07/17 02:39:45;;;;;;;2.50;2.30;;;22.50;64.50;;;;;;4987074;28;20030;-82
2023/07/17 02:42:10;;;;;;;3.15;2.90;;;22.50;65.10;;;;;;4972157;28;20023;-82
2023/07/17 02:44:36;;;;;;;3.42;2.85;;;22.60;64.40;;;;;;4986967;28;20046;-82
2023/07/17 02:47:02;;;;;;;3.25;2.65;;;22.60;64.50;;;;;;4971852;28;20142;-82
2023/07/17 02:49:28;;;;;;;4.13;3.20;;;22.60;64.50;;;;;;4972040;28;20030;-82
2023/07/17 02:51:53;;;;;;;3.05;2.72;;;22.70;64.90;;;;;;4971992;28;20161;-82
2023/07/17 02:54:21;;;;;;;3.13;2.75;;;22.70;65.10;;;;;;4971971;28;20041;-81
2023/07/17 02:56:46;;;;;;;3.47;2.72;;;22.70;65.30;;;;;;4954596;28;20018;-82
2023/07/17 02:59:12;;;;;;;3.72;2.97;;;22.80;65.50;;;;;;4954554;28;20163;-82
2023/07/17 03:01:38;;;;;;;3.15;2.72;;;22.80;65.40;;;;;;4954654;28;20027;-82
2023/07/17 03:04:03;;;;;;;4.03;3.00;;;22.90;65.10;;;;;;4973907;28;20026;-82
2023/07/17 03:06:29;;;;;;;3.30;2.88;;;22.90;64.90;;;;;;4975410;28;20038;-82
2023/07/17 03:08:55;;;;;;;4.90;3.10;;;23.00;64.60;;;;;;4974103;28;20037;-82
2023/07/17 03:11:20;;;;;;;3.28;2.97;;;23.10;64.20;;;;;;4975760;28;20066;-82
2023/07/17 03:13:46;;;;;;;3.33;2.97;;;23.10;64.00;;;;;;4956845;28;20035;-82
2023/07/17 03:16:12;;;;;;;3.67;2.70;;;23.20;63.90;;;;;;4957875;28;20090;-82
2023/07/17 03:18:37;;;;;;;3.53;2.88;;;23.30;64.00;;;;;;4973812;28;20042;-82
2023/07/17 03:21:04;;;;;;;2.90;2.60;;;23.30;64.20;;;;;;4973692;28;20037;-82
2023/07/17 03:23:29;;;;;;;3.70;3.13;;;23.30;64.20;;;;;;4975100;28;20015;-82
2023/07/17 03:25:58;;;;;;;3.40;2.95;;;23.40;64.50;;;;;;4975045;28;20037;-82
2023/07/17 03:28:24;;;;;;;3.25;2.95;;;23.50;64.30;;;;;;4974913;28;20101;-82
2023/07/17 03:30:51;;;;;;;3.53;3.22;;;23.50;64.40;;;;;;4957404;28;20137;-82
2023/07/17 03:33:16;;;;;;;3.70;2.70;;;23.60;64.70;;;;;;4974899;28;20089;-82
2023/07/17 03:35:42;;;;;;;3.38;3.03;;;23.60;65.60;;;;;;4974848;28;20418;-82
2023/07/17 03:38:08;;;;;;;4.22;2.97;;;23.70;66.00;;;;;;4973650;28;20080;-82
2023/07/17 03:40:33;;;;;;;3.28;2.97;;;23.90;65.40;;;;;;4974526;28;20170;-82
2023/07/17 03:42:59;;;;;;;3.30;3.00;;;24.10;65.30;;;;;;4971891;28;20110;-82
2023/07/17 03:45:25;;;;;;;2.95;2.63;;;24.30;65.60;;;;;;4994122;28;20110;-82
2023/07/17 03:47:51;;;;;;;4.15;2.85;;;24.60;65.30;;;;;;4992364;28;20433;-83
2023/07/17 03:50:16;;;;;;;3.65;2.92;;;25.00;65.30;;;;;;4992354;28;20053;-82
2023/07/17 03:52:42;;;;;;;4.20;2.88;;;25.40;65.00;;;;;;4992349;28;20081;-82
2023/07/17 03:55:08;;;;;;;3.45;2.80;;;25.90;64.40;;;;;;4991440;28;20455;-83
2023/07/17 03:57:34;;;;;;;2.60;2.40;;;26.50;63.40;;;;;;4975213;28;20049;-83
2023/07/17 03:59:59;;;;;;;3.83;3.08;;;27.20;62.40;;;;;;4991341;28;20023;-82
2023/07/17 04:02:25;;;;;;;3.03;2.72;;;27.90;61.40;;;;;;4992610;28;20076;-83
2023/07/17 04:04:51;;;;;;;3.10;2.67;;;28.50;60.30;;;;;;4992388;28;20486;-83
2023/07/17 04:07:17;;;;;;;4.72;3.00;;;29.10;58.80;;;;;;4993790;28;20041;-83
2023/07/17 04:09:42;;;;;;;4.28;2.88;;;29.30;57.80;;;;;;4993773;28;20027;-83
2023/07/17 04:12:08;;;;;;;3.60;3.10;;;29.20;57.20;;;;;;4992521;28;20109;-83
2023/07/17 04:14:35;;;;;;;3.67;2.78;;;28.90;57.00;;;;;;4992674;28;20026;-83
2023/07/17 04:17:02;;;;;;;4.97;3.00;;;28.80;57.30;;;;;;4993473;28;20089;-83
2023/07/17 04:19:27;;;;;;;3.35;3.00;;;29.00;57.40;;;;;;4993395;28;20014;-83
2023/07/17 04:21:53;;;;;;;3.90;2.80;;;29.60;57.20;;;;;;4993488;28;20092;-83
2023/07/17 04:24:19;;;;;;;4.10;2.90;;;30.30;56.60;;;;;;4992232;28;20034;-83
2023/07/17 04:26:45;;;;;;;5.35;2.97;;;31.10;55.80;;;;;;4993460;28;20077;-83
2023/07/17 04:29:10;;;;;;;3.15;2.80;;;31.80;54.80;;;;;;4975940;28;20030;-82
2023/07/17 04:31:36;;;;;;;3.22;2.60;;;32.50;53.80;;;;;;4993211;28;20031;-83
2023/07/17 04:34:02;;;;;;;3.53;2.67;;;33.10;53.00;;;;;;4991984;28;20026;-83
2023/07/17 04:36:28;;;;;;;4.55;2.78;;;33.90;52.40;;;;;;4993131;28;20056;-83
2023/07/17 04:38:53;;;;;;;3.85;2.60;;;34.50;51.60;;;;;;4991986;28;20394;-83
2023/07/17 04:41:19;;;;;;;3.05;2.70;;;35.00;51.10;;;;;;4991886;28;20033;-83
2023/07/17 04:43:45;;;;;;;2.90;2.65;;;35.60;50.60;;;;;;4993263;28;20026;-83
2023/07/17 04:46:10;;;;;;;3.00;2.53;;;35.90;50.10;;;;;;4992849;28;20513;-83
2023/07/17 04:48:36;;;;;;;3.88;2.42;;;36.30;50.40;;;;;;4992945;28;20034;-83
2023/07/17 04:51:02;;;;;;;2.70;2.50;;;36.60;49.40;;;;;;4992839;28;20037;-83
2023/07/17 04:53:27;;;;;;;3.13;2.70;;;36.90;49.00;;;;;;4991655;28;20022;-83
2023/07/17 04:55:53;;;;;;;2.95;2.58;;;37.20;48.70;;;;;;4991724;28;20026;-83
2023/07/17 04:58:19;;;;;;;3.00;2.70;;;37.50;48.20;;;;;;4991573;28;20023;-83
2023/07/17 05:00:46;;;;;;;2.80;2.50;;;37.70;47.80;;;;;;4992846;28;20025;-83
2023/07/17 05:03:16;;;;;;;3.30;3.00;;;37.80;47.60;;;;;;4991581;28;20112;-83
2023/07/17 05:05:47;;;;;;;2.70;2.50;;;38.10;47.30;;;;;;4987671;28;20030;-83
2023/07/17 05:08:13;;;;;;;2.63;2.42;;;38.20;47.20;;;;;;4973342;28;20071;-83
2023/07/17 05:10:38;;;;;;;2.47;2.28;;;38.40;47.00;;;;;;4973244;28;20066;-83
2023/07/17 05:13:04;;;;;;;4.88;2.70;;;38.50;46.80;;;;;;4955805;28;20035;-83
2023/07/17 05:15:30;;;;;;;2.80;2.60;;;38.70;46.60;;;;;;4973514;28;20121;-83
2023/07/17 05:17:55;;;;;;;3.50;2.90;;;38.80;46.30;;;;;;4955230;28;20034;-83
2023/07/17 05:20:21;;;;;;;2.88;2.67;;;38.90;46.10;;;;;;4971439;28;20089;-83
2023/07/17 05:22:47;;;;;;;4.03;2.80;;;38.90;46.00;;;;;;4972768;28;20436;-83
2023/07/17 05:25:12;;;;;;;2.70;2.50;;;39.00;45.70;;;;;;4971542;28;20487;-84
2023/07/17 05:27:38;;;;;;;3.15;2.83;;;39.00;45.30;;;;;;4971643;28;20030;-83
2023/07/17 05:30:04;;;;;;;4.85;3.20;;;38.80;44.90;;;;;;4971073;28;20111;-83
2023/07/17 05:32:30;;;;;;;2.97;2.67;;;38.60;44.80;;;;;;4972745;28;20105;-83
2023/07/17 05:34:56;;;;;;;3.67;2.90;;;38.00;44.90;;;;;;4972988;28;20582;-83
2023/07/17 05:37:22;;;;;;;4.30;3.22;;;37.30;45.30;;;;;;4971307;28;20035;-83
2023/07/17 05:39:47;;;;;;;3.22;2.88;;;36.50;45.70;;;;;;4955004;28;20026;-83
2023/07/17 05:42:13;;;;;;;3.78;3.05;;;35.80;46.30;;;;;;4971188;28;20026;-83
2023/07/17 05:44:39;;;;;;;5.05;3.15;;;35.10;46.90;;;;;;4972217;28;20046;-83
2023/07/17 05:47:05;;;;;;;3.75;3.20;;;34.40;47.50;;;;;;4972675;28;20471;-83
2023/07/17 05:49:31;;;;;;;4.20;3.42;;;33.80;48.40;;;;;;4971676;28;20543;-83
2023/07/17 05:51:57;;;;;;;5.28;3.83;;;33.20;48.90;;;;;;4971367;28;20104;-83
2023/07/17 05:54:22;;;;;;;4.13;3.25;;;32.80;49.40;;;;;;4972609;28;20027;-83
2023/07/17 05:56:48;;;;;;;3.50;3.20;;;32.40;50.10;;;;;;4971321;28;20026;-83
2023/07/17 05:59:14;;;;;;;4.15;3.40;;;31.90;50.60;;;;;;4974874;28;20026;-85
2023/07/17 06:01:40;;;;;;;3.60;3.30;;;31.60;51.00;;;;;;4967784;28;20045;-82
2023/07/17 06:04:06;;;;;;;4.72;3.25;;;31.40;51.50;;;;;;4978790;28;20034;-85
2023/07/17 06:06:32;;;;;;;5.00;3.30;;;31.20;52.00;;;;;;4967149;28;20031;-85
2023/07/17 06:09:01;;;;;;;4.43;3.55;;;30.90;52.40;;;;;;4981443;28;20097;-85
2023/07/17 06:11:26;;;;;;;3.50;3.20;;;30.70;52.70;;;;;;4976748;28;20027;-84
2023/07/17 06:13:52;;;;;;;3.80;3.40;;;30.60;53.20;;;;;;4963229;28;20038;-81
2023/07/17 06:16:18;;;;;;;3.85;3.38;;;30.40;53.40;;;;;;4978905;28;20026;-81
2023/07/17 06:18:44;;;;;;;4.10;3.40;;;30.20;53.70;;;;;;4980273;28;20033;-81
2023/07/17 06:21:10;;;;;;;4.57;3.45;;;30.10;54.10;;;;;;4976866;28;20121;-81
2023/07/17 06:23:35;;;;;;;4.22;3.72;;;30.00;54.60;;;;;;4956495;28;20110;-81
2023/07/17 06:26:01;;;;;;;3.80;3.45;;;29.80;54.80;;;;;;4989616;28;20026;-85
2023/07/17 06:28:29;;;;;;;3.38;3.08;;;29.70;55.00;;;;;;4995935;28;20014;-86
2023/07/17 06:30:54;;;;;;;3.47;3.17;;;29.60;55.30;;;;;;4979038;28;20114;-85
2023/07/17 06:33:21;;;;;;;3.92;3.45;;;29.60;55.40;;;;;;4996027;28;20035;-85
2023/07/17 06:35:48;;;;;;;3.63;3.33;;;29.50;55.80;;;;;;5005463;28;20567;-85
2023/07/17 06:38:13;;;;;;;4.20;3.53;;;29.40;55.90;;;;;;4995945;28;20034;-84
2023/07/17 06:40:39;;;;;;;4.80;3.75;;;29.40;56.10;;;;;;4985949;28;20041;-83
2023/07/17 06:43:04;;;;;;;4.22;3.60;;;29.30;56.10;;;;;;4990371;28;20031;-85
2023/07/17 06:45:30;;;;;;;4.03;3.63;;;29.30;56.50;;;;;;5008708;28;20042;-85
2023/07/17 06:47:56;;;;;;;4.30;3.88;;;29.20;56.60;;;;;;5009336;28;20038;-86
2023/07/17 06:50:21;;;;;;;4.10;3.65;;;29.10;56.70;;;;;;5009543;28;20197;-86
2023/07/17 06:52:47;;;;;;;4.40;3.80;;;29.10;56.80;;;;;;5007351;28;20493;-86
2023/07/17 06:55:13;;;;;;;4.15;3.17;;;29.10;57.00;;;;;;5010499;28;20706;-85
2023/07/17 06:57:38;;;;;;;3.75;3.35;;;29.00;57.00;;;;;;4995275;23;20118;-61
2023/07/17 07:00:05;;;;;;;4.55;3.72;;;29.00;57.30;;;;;;4962774;28;20031;-60
2023/07/17 07:02:31;;;;;;;3.83;3.42;;;29.00;57.40;;;;;;4971805;28;20138;-61
2023/07/17 07:04:57;;;;;;;3.88;3.42;;;28.90;57.50;;;;;;4968551;28;20073;-62
2023/07/17 07:07:23;;;;;;;3.55;3.25;;;28.90;57.60;;;;;;4966565;28;20558;-64
2023/07/17 07:09:48;;;;;;;3.72;3.42;;;28.90;57.80;;;;;;4958741;28;20053;-63
2023/07/17 07:12:14;;;;;;;3.60;3.30;;;28.80;57.90;;;;;;4965752;28;20045;-62
2023/07/17 07:14:41;;;;;;;4.40;3.72;;;28.90;58.10;;;;;;4962400;28;20023;-62
2023/07/17 07:17:08;;;;;;;4.70;4.20;;;28.80;58.20;;;;;;4963634;28;20626;-57
2023/07/17 07:19:33;;;;;;;4.15;3.40;;;28.80;58.40;;;;;;4966135;28;20085;-61
2023/07/17 07:21:59;;;;;;;3.95;3.55;;;28.80;58.40;;;;;;4965038;28;20019;-63
2023/07/17 07:24:25;;;;;;;3.80;3.10;;;28.80;58.60;;;;;;4965993;28;20057;-63
2023/07/17 07:26:50;;;;;;;4.43;3.83;;;28.80;58.80;;;;;;4968369;28;20038;-61
2023/07/17 07:29:16;;;;;;;4.50;4.07;;;28.80;58.80;;;;;;4963653;28;20392;-60
2023/07/17 07:31:41;;;;;;;4.72;3.88;;;28.70;59.00;;;;;;4961849;28;20030;-61
2023/07/17 07:34:07;;;;;;;5.72;3.63;;;28.70;59.20;;;;;;4966906;28;20447;-63
2023/07/17 07:36:33;;;;;;;5.10;3.97;;;28.70;59.20;;;;;;4963607;28;20061;-67
2023/07/17 07:38:59;;;;;;;4.10;3.72;;;28.60;59.40;;;;;;4972019;28;20026;-60
2023/07/17 07:41:24;;;;;;;3.90;3.50;;;28.60;59.50;;;;;;4962419;28;20411;-62
2023/07/17 07:43:50;;;;;;;3.85;3.47;;;28.60;59.80;;;;;;4962565;28;20084;-63
2023/07/17 07:46:16;;;;;;;3.97;3.55;;;28.60;59.90;;;;;;4963476;28;20038;-63
2023/07/17 07:48:41;;;;;;;4.45;3.95;;;28.60;60.10;;;;;;4959107;28;20038;-59
2023/07/17 07:51:07;;;;;;;4.53;3.67;;;28.60;60.30;;;;;;4961817;28;20554;-59
2023/07/17 07:53:33;;;;;;;6.45;3.80;;;28.60;60.30;;;;;;4960090;28;20035;-59
2023/07/17 07:56:00;;;;;;;4.00;3.42;;;28.50;60.30;;;;;;4956056;28;20066;-60
2023/07/17 07:58:26;;;;;;;4.97;3.85;;;28.50;60.40;;;;;;4960294;28;20055;-62
2023/07/17 08:00:53;;;;;;;4.13;3.72;;;28.50;60.60;;;;;;4963534;28;20019;-60
2023/07/17 08:03:18;;;;;;;8.95;3.60;;;28.50;61.20;;;;;;4964805;28;20113;-57
2023/07/17 08:05:44;;;;;;;4.47;3.42;;;28.50;61.00;;;;;;4960488;28;20019;-59
2023/07/17 08:08:10;;;;;;;4.30;3.90;;;28.40;61.00;;;;;;4961910;28;20030;-62
2023/07/17 08:10:38;;;;;;;3.92;3.53;;;28.40;61.30;;;;;;4964103;28;20129;-62
2023/07/17 08:13:04;;;;;;;3.92;3.53;;;28.40;61.30;;;;;;4960270;28;20097;-59
2023/07/17 08:15:30;;;;;;;4.25;3.63;;;28.40;61.30;;;;;;4961997;28;20035;-63
2023/07/17 08:17:56;;;;;;;5.68;3.47;;;28.40;61.70;;;;;;4964328;28;20046;-60
2023/07/17 08:20:22;;;;;;;3.90;3.50;;;28.40;61.70;;;;;;4962468;28;20069;-60
2023/07/17 08:22:50;;;;;;;4.07;3.65;;;28.40;61.70;;;;;;4962906;28;20097;-61
2023/07/17 08:25:15;;;;;;;3.75;3.45;;;28.40;61.70;;;;;;4961777;28;20168;-60
2023/07/17 08:27:41;;;;;;;4.35;3.55;;;28.30;61.50;;;;;;4963925;28;20142;-63
2023/07/17 08:30:07;;;;;;;4.75;3.60;;;28.30;61.70;;;;;;4962294;28;20039;-61
2023/07/17 08:32:33;;;;;;;4.53;3.90;;;28.30;62.00;;;;;;4963111;28;20126;-61
2023/07/17 08:34:58;;;;;;;4.10;3.60;;;28.30;61.80;;;;;;4964912;28;20458;-61
2023/07/17 08:37:25;;;;;;;4.80;3.40;;;28.30;61.80;;;;;;4966943;28;20037;-59
2023/07/17 08:39:51;;;;;;;4.18;3.65;;;28.30;61.90;;;;;;4965737;28;20031;-62
2023/07/17 08:42:16;;;;;;;4.00;3.47;;;28.20;61.50;;;;;;4960651;28;20465;-58
2023/07/17 08:44:42;;;;;;;3.80;3.30;;;28.20;61.50;;;;;;4965004;28;20050;-59
2023/07/17 08:47:08;;;;;;;4.38;3.47;;;28.20;61.50;;;;;;4958198;28;20039;-62
2023/07/17 08:49:35;;;;;;;3.90;3.50;;;28.10;61.10;;;;;;4962346;28;20023;-61
2023/07/17 08:52:03;;;;;;;4.15;3.67;;;28.10;61.20;;;;;;4959580;28;20440;-63
2023/07/17 08:54:29;;;;;;;3.35;3.05;;;28.10;61.10;;;;;;4962240;28;20503;-60
2023/07/17 08:57:01;;;;;;;3.92;3.53;;;28.10;61.00;;;;;;4954994;28;20141;-58
2023/07/17 08:59:28;;;;;;;4.03;3.58;;;28.10;60.90;;;;;;4956541;28;20060;-59
2023/07/17 09:01:54;;;;;;;4.13;3.72;;;28.00;60.90;;;;;;4959838;28;20030;-58
2023/07/17 09:04:20;;;;;;;3.53;3.20;;;28.00;61.00;;;;;;4961093;28;20027;-58
2023/07/17 09:06:46;;;;;;;4.47;3.53;;;28.00;61.20;;;;;;4966393;28;20045;-59
2023/07/17 09:09:12;;;;;;;4.05;3.65;;;27.90;61.10;;;;;;4962933;28;20471;-60
2023/07/17 09:11:38;;;;;;;4.47;3.60;;;27.90;61.40;;;;;;4961547;28;20387;-61
2023/07/17 09:14:07;;;;;;;3.85;3.45;;;27.90;61.40;;;;;;4963299;28;20034;-58
2023/07/17 09:16:33;;;;;;;3.90;3.17;;;27.90;61.50;;;;;;4960787;28;20023;-56
2023/07/17 09:19:00;;;;;;;4.38;3.75;;;27.80;61.50;;;;;;4961216;28;20030;-60
2023/07/17 09:21:26;;;;;;;5.28;3.55;;;27.80;61.60;;;;;;4963933;28;20035;-60
2023/07/17 09:23:56;;;;;;;4.32;3.70;;;27.80;61.90;;;;;;4963243;28;20173;-60
2023/07/17 09:26:24;;;;;;;5.03;3.65;;;27.80;61.90;;;;;;4960005;28;20062;-61
2023/07/17 09:28:51;;;;;;;4.68;4.03;;;27.70;62.10;;;;;;4966731;28;20058;-61
2023/07/17 09:31:23;;;;;;;6.07;4.93;;;27.70;62.30;;;;;;4960369;28;20026;-62
2023/07/17 09:33:49;;;;;;;5.30;4.80;;;27.70;62.50;;;;;;4955490;28;20046;-61
2023/07/17 09:36:15;;;;;;;4.43;4.03;;;27.70;62.80;;;;;;4961186;28;20039;-61
2023/07/17 09:38:41;;;;;;;4.22;3.85;;;27.70;62.80;;;;;;4959879;28;20026;-61
2023/07/17 09:41:27;;;;;;;4.30;3.95;;;27.70;62.90;;;;;;4962846;28;20380;-61
2023/07/17 09:43:54;;;;;;;4.28;3.88;;;27.60;62.90;;;;;;4959980;28;20027;-62
2023/07/17 09:46:20;;;;;;;4.15;3.75;;;27.60;63.30;;;;;;4962916;28;20147;-62
2023/07/17 09:48:46;;;;;;;4.78;4.03;;;27.60;63.30;;;;;;4954498;28;20030;-61
2023/07/17 09:51:12;;;;;;;4.65;4.15;;;27.60;63.70;;;;;;4960329;28;20101;-61
2023/07/17 09:53:40;;;;;;;4.70;4.00;;;27.60;63.90;;;;;;4964094;28;20493;-64
2023/07/17 09:56:11;;;;;;;5.13;4.35;;;27.60;64.20;;;;;;4958803;28;20440;-60
2023/07/17 09:58:39;;;;;;;4.18;3.78;;;27.60;64.50;;;;;;4957509;28;20497;-60
2023/07/17 10:01:07;;;;;;;4.63;4.15;;;27.60;64.50;;;;;;4958359;28;20031;-63
2023/07/17 10:03:34;;;;;;;5.65;4.30;;;27.60;64.50;;;;;;4960632;28;20439;-64
2023/07/17 10:06:00;;;;;;;4.72;4.22;;;27.60;64.30;;;;;;4967582;28;20399;-61
2023/07/17 10:08:28;;;;;;;4.20;3.80;;;27.60;64.90;;;;;;4960789;28;20069;-60
2023/07/17 10:10:54;;;;;;;5.22;4.60;;;27.60;64.90;;;;;;4959481;28;20038;-61
2023/07/17 10:13:20;;;;;;;4.38;3.97;;;27.50;64.40;;;;;;4963476;28;20038;-61
2023/07/17 10:15:46;;;;;;;5.05;4.50;;;27.60;64.40;;;;;;4966795;28;20164;-61
2023/07/17 10:18:12;;;;;;;4.10;3.70;;;27.60;64.20;;;;;;4969591;28;20039;-61
2023/07/17 10:20:39;;;;;;;5.03;3.88;;;27.60;64.10;;;;;;4965399;28;20154;-61
2023/07/17 10:23:21;;;;;;;4.30;3.80;;;27.60;64.00;;;;;;4968735;28;20113;-60
2023/07/17 10:25:46;;;;;;;4.65;4.10;;;27.60;63.90;;;;;;4969029;28;20034;-60
2023/07/17 10:28:12;;;;;;;4.15;3.78;;;27.60;63.90;;;;;;4966995;28;20349;-62
2023/07/17 10:30:38;;;;;;;4.13;3.72;;;27.60;64.00;;;;;;4965228;28;20027;-61
2023/07/17 10:33:16;;;;;;;5.32;4.13;;;27.60;64.10;;;;;;4962296;28;20031;-63
2023/07/17 10:35:56;;;;;;;4.95;4.45;;;27.60;64.20;;;;;;4967075;28;20031;-62
2023/07/17 10:38:29;;;;;;;4.55;4.15;;;27.50;64.00;;;;;;4961461;28;20031;-61
2023/07/17 10:41:13;;;;;;;4.28;3.83;;;27.60;64.00;;;;;;4964301;28;20099;-62
2023/07/17 10:44:03;;;;;;;4.18;3.55;;;27.60;63.90;;;;;;4964335;28;20122;-62
2023/07/17 10:46:33;;;;;;;4.30;3.90;;;27.60;63.90;;;;;;4959807;28;20019;-62
2023/07/17 10:49:09;;;;;;;4.57;4.18;;;27.60;64.00;;;;;;4952855;28;20699;-62
2023/07/17 10:51:44;;;;;;;4.07;3.63;;;27.60;63.90;;;;;;4965378;28;20023;-62
2023/07/17 10:54:11;;;;;;;4.15;3.75;;;27.60;63.90;;;;;;4948248;28;20052;-61
2023/07/17 10:56:37;;;;;;;4.55;3.90;;;27.60;64.00;;;;;;4961145;28;20055;-61
2023/07/17 10:59:04;;;;;;;4.40;4.00;;;27.60;64.00;;;;;;4965344;28;20126;-60
2023/07/17 11:01:30;;;;;;;4.45;4.05;;;27.60;64.10;;;;;;4955984;28;20083;-60
2023/07/17 11:03:56;;;;;;;4.22;3.83;;;27.60;64.20;;;;;;4964260;28;20019;-61
2023/07/17 11:06:25;;;;;;;4.30;3.90;;;27.70;64.60;;;;;;4965520;28;20522;-63
2023/07/17 11:08:51;;;;;;;4.80;4.30;;;27.60;64.70;;;;;;4961935;28;20054;-59
2023/07/17 11:11:18;;;;;;;4.50;4.10;;;27.60;64.80;;;;;;4963097;28;20045;-58
2023/07/17 11:13:45;;;;;;;4.43;4.00;;;27.70;64.60;;;;;;4961186;28;20042;-59
2023/07/17 11:16:11;;;;;;;4.88;3.90;;;27.60;64.40;;;;;;4958807;28;20661;-58
2023/07/17 11:18:48;;;;;;;4.57;4.07;;;27.70;64.20;;;;;;4960271;28;20038;-57
2023/07/17 11:21:19;;;;;;;4.72;4.13;;;27.70;63.80;;;;;;4959585;28;20751;-60
2023/07/17 11:23:48;;;;;;;7.03;4.32;;;27.70;64.00;;;;;;4964875;28;20030;-58
2023/07/17 11:26:17;;;;;;;4.70;4.18;;;27.70;63.90;;;;;;4966100;28;20035;-59
2023/07/17 11:28:43;;;;;;;4.40;4.00;;;27.70;63.80;;;;;;4960496;28;20042;-58
2023/07/17 11:31:29;;;;;;;4.70;3.95;;;27.70;63.60;;;;;;4958358;28;20041;-60
2023/07/17 11:33:59;;;;;;;5.43;4.22;;;27.70;63.30;;;;;;4960349;28;20022;-59
2023/07/17 11:36:37;;;;;;;4.43;3.80;;;27.70;63.10;;;;;;4960456;28;20027;-59
2023/07/17 11:39:13;;;;;;;4.45;4.05;;;27.70;63.80;;;;;;4961832;28;20494;-64
2023/07/17 11:41:55;;;;;;;5.25;4.75;;;27.80;63.20;;;;;;4960036;28;20033;-63
2023/07/17 11:44:27;;;;;;;4.25;3.63;;;27.80;63.10;;;;;;4963622;28;20447;-59
2023/07/17 11:47:05;;;;;;;4.43;3.92;;;27.80;63.10;;;;;;4954610;28;20109;-61
2023/07/17 11:49:33;;;;;;;4.28;3.88;;;27.80;63.20;;;;;;4961436;28;20038;-58
2023/07/17 11:51:59;;;;;;;4.57;4.15;;;27.80;62.90;;;;;;4957510;28;20019;-60
2023/07/17 11:54:36;;;;;;;4.70;3.95;;;27.80;63.10;;;;;;4958520;28;20046;-59
2023/07/17 11:57:03;;;;;;;4.82;4.28;;;27.80;62.90;;;;;;4963615;28;20057;-59
2023/07/17 11:59:30;;;;;;;4.38;3.97;;;27.80;62.70;;;;;;4960965;28;20081;-58
2023/07/17 12:01:56;;;;;;;4.60;4.18;;;27.80;62.80;;;;;;4964595;28;20027;-58
2023/07/17 12:04:22;;;;;;;5.55;3.80;;;27.80;62.90;;;;;;4963152;28;20126;-58
2023/07/17 12:06:49;;;;;;;4.80;4.40;;;27.80;62.90;;;;;;4962306;28;20127;-57
2023/07/17 12:09:15;;;;;;;4.55;4.00;;;27.80;62.90;;;;;;4962050;28;20034;-58
2023/07/17 12:11:43;;;;;;;4.57;4.18;;;27.80;63.00;;;;;;4955156;28;20054;-56
2023/07/17 12:14:09;;;;;;;4.50;3.92;;;27.80;63.10;;;;;;4957465;28;20058;-58
2023/07/17 12:16:35;;;;;;;4.40;4.00;;;27.80;63.10;;;;;;4960352;28;20062;-55
2023/07/17 12:19:00;;;;;;;4.70;4.22;;;27.80;62.70;;;;;;4959119;28;20089;-56
2023/07/17 12:21:26;;;;;;;4.70;4.20;;;27.80;62.70;;;;;;4957367;28;20041;-61
2023/07/17 12:23:52;;;;;;;4.90;4.40;;;27.80;62.60;;;;;;4962309;28;20026;-59
2023/07/17 12:26:17;;;;;;;5.63;5.00;;;27.80;62.80;;;;;;4968029;28;20035;-60
2023/07/17 12:28:43;;;;;;;7.30;4.90;;;27.80;62.80;;;;;;4960658;28;20030;-57
2023/07/17 12:31:09;;;;;;;5.20;4.70;;;27.80;62.90;;;;;;4960458;28;20470;-60
2023/07/17 12:33:34;;;;;;;4.80;4.30;;;27.80;63.70;;;;;;4959960;28;20049;-61
2023/07/17 12:36:00;;;;;;;4.78;4.28;;;27.80;63.10;;;;;;4960637;28;20049;-60
2023/07/17 12:38:26;;;;;;;4.78;4.30;;;27.80;63.00;;;;;;4958400;28;20026;-60
2023/07/17 12:40:51;;;;;;;4.60;4.20;;;27.80;63.20;;;;;;4964924;28;20031;-61
2023/07/17 12:43:17;;;;;;;4.43;4.03;;;27.80;63.10;;;;;;4962553;28;20066;-60
2023/07/17 12:45:43;;;;;;;4.82;4.32;;;27.80;63.00;;;;;;4964867;28;20034;-60